createdAt,value
2018-11-03T00:00:25.859Z,7.07
2018-11-03T00:02:54.107Z,6.60
2018-11-03T00:05:22.247Z,5.83
2018-11-03T00:07:50.407Z,5.50
2018-11-03T00:10:18.562Z,6.33
2018-11-03T00:12:46.712Z,6.60
2018-11-03T00:15:14.871Z,7.23
2018-11-03T00:17:43.039Z,7.43
2018-11-03T00:20:11.198Z,5.90
2018-11-03T00:22:39.436Z,6.60
2018-11-03T00:25:08.065Z,6.70
2018-11-03T00:27:36.223Z,6.37
2018-11-03T00:30:05.925Z,6.40
2018-11-03T00:32:34.077Z,6.20
2018-11-03T00:35:02.232Z,6.57
2018-11-03T00:37:30.432Z,6.77
2018-11-03T00:39:58.591Z,6.83
2018-11-03T00:42:26.784Z,6.27
2018-11-03T00:44:54.995Z,7.00
2018-11-03T00:47:23.146Z,6.27
2018-11-03T00:49:51.284Z,5.63
2018-11-03T00:52:19.444Z,7.10
2018-11-03T00:54:47.587Z,6.67
2018-11-03T00:57:15.735Z,6.47
2018-11-03T00:59:43.903Z,6.20
2018-11-03T01:02:12.090Z,6.00
2018-11-03T01:04:40.274Z,6.47
2018-11-03T01:07:08.447Z,6.53
2018-11-03T01:09:36.599Z,5.63
2018-11-03T01:12:04.751Z,6.57
2018-11-03T01:14:32.919Z,6.33
2018-11-03T01:17:01.090Z,5.87
2018-11-03T01:19:29.238Z,6.67
2018-11-03T01:21:57.433Z,6.30
2018-11-03T01:24:25.607Z,6.40
2018-11-03T01:26:53.779Z,5.47
2018-11-03T01:29:21.956Z,5.50
2018-11-03T01:31:50.110Z,6.90
2018-11-03T01:34:18.300Z,6.73
2018-11-03T01:36:46.464Z,6.23
2018-11-03T01:39:14.612Z,6.50
2018-11-03T01:41:42.753Z,6.90
2018-11-03T01:44:10.927Z,6.73
2018-11-03T01:46:39.083Z,6.83
2018-11-03T01:49:07.290Z,7.07
2018-11-03T01:51:35.490Z,6.07
2018-11-03T01:54:03.634Z,5.80
2018-11-03T01:56:31.841Z,6.47
2018-11-03T01:58:59.959Z,6.70
2018-11-03T02:01:28.135Z,6.60
2018-11-03T02:03:56.278Z,6.57
2018-11-03T02:06:24.439Z,6.53
2018-11-03T02:08:52.602Z,6.50
2018-11-03T02:11:20.757Z,5.90
2018-11-03T02:13:48.915Z,6.83
2018-11-03T02:16:17.077Z,6.73
2018-11-03T02:18:45.210Z,6.73
2018-11-03T02:21:13.456Z,6.47
2018-11-03T02:23:41.646Z,6.80
2018-11-03T02:26:09.887Z,7.37
2018-11-03T02:28:38.065Z,7.30
2018-11-03T02:31:06.503Z,7.13
2018-11-03T02:33:34.692Z,7.73
2018-11-03T02:36:02.885Z,7.53
2018-11-03T02:38:31.055Z,6.90
2018-11-03T02:40:59.219Z,8.20
2018-11-03T02:43:27.402Z,8.07
2018-11-03T02:45:55.595Z,7.87
2018-11-03T02:48:23.746Z,8.37
2018-11-03T02:50:51.910Z,8.97
2018-11-03T02:53:20.037Z,7.83
2018-11-03T02:55:48.183Z,7.60
2018-11-03T02:58:16.328Z,7.57
2018-11-03T03:00:44.455Z,8.33
2018-11-03T03:03:12.607Z,8.00
2018-11-03T03:05:40.767Z,7.13
2018-11-03T03:08:08.978Z,7.70
2018-11-03T03:10:37.122Z,8.07
2018-11-03T03:13:05.523Z,7.93
2018-11-03T03:15:33.680Z,7.63
2018-11-03T03:18:01.845Z,8.17
2018-11-03T03:20:29.995Z,7.87
2018-11-03T03:22:58.151Z,7.30
2018-11-03T03:25:26.309Z,8.40
2018-11-03T03:27:54.473Z,7.87
2018-11-03T03:30:22.654Z,8.97
2018-11-03T03:32:50.843Z,8.30
2018-11-03T03:35:18.975Z,8.83
2018-11-03T03:37:47.122Z,7.43
2018-11-03T03:40:15.292Z,7.83
2018-11-03T03:42:43.483Z,7.10
2018-11-03T03:45:11.699Z,8.10
2018-11-03T03:47:39.856Z,8.20
2018-11-03T03:50:09.065Z,8.27
2018-11-03T03:52:37.226Z,7.90
2018-11-03T03:55:05.627Z,7.67
2018-11-03T03:57:33.812Z,7.40
2018-11-03T04:00:01.975Z,7.20
2018-11-03T04:02:30.141Z,7.17
2018-11-03T04:04:58.269Z,6.80
2018-11-03T04:07:26.412Z,6.67
2018-11-03T04:09:54.584Z,6.80
2018-11-03T04:12:22.719Z,7.00
2018-11-03T04:14:50.859Z,6.33
2018-11-03T04:17:19.019Z,6.80
2018-11-03T04:19:47.180Z,6.57
2018-11-03T04:22:15.347Z,6.67
2018-11-03T04:24:43.513Z,6.67
2018-11-03T04:27:11.667Z,6.17
2018-11-03T04:29:39.812Z,6.60
2018-11-03T04:32:07.992Z,6.93
2018-11-03T04:34:36.125Z,6.50
2018-11-03T04:37:04.314Z,6.57
2018-11-03T04:39:32.430Z,7.00
2018-11-03T04:42:00.582Z,7.27
2018-11-03T04:44:28.801Z,6.63
2018-11-03T04:46:56.987Z,7.20
2018-11-03T04:49:25.235Z,6.53
2018-11-03T04:51:53.367Z,6.43
2018-11-03T04:54:21.518Z,7.47
2018-11-03T04:56:49.659Z,6.90
2018-11-03T04:59:17.811Z,6.63
2018-11-03T05:01:45.973Z,7.10
2018-11-03T05:04:14.135Z,6.70
2018-11-03T05:06:42.287Z,7.30
2018-11-03T05:09:11.102Z,7.00
2018-11-03T05:11:39.306Z,7.17
2018-11-03T05:14:08.476Z,6.03
2018-11-03T05:16:36.942Z,6.80
2018-11-03T05:19:05.217Z,7.60
2018-11-03T05:21:33.372Z,6.70
2018-11-03T05:24:01.549Z,7.37
2018-11-03T05:26:29.715Z,7.00
2018-11-03T05:28:57.931Z,7.60
2018-11-03T05:31:26.180Z,7.20
2018-11-03T05:33:54.261Z,7.13
2018-11-03T05:36:22.400Z,7.40
2018-11-03T05:38:50.568Z,7.93
2018-11-03T05:41:18.707Z,7.73
2018-11-03T05:43:46.843Z,7.67
2018-11-03T05:46:14.993Z,8.77
2018-11-03T05:48:43.124Z,7.37
2018-11-03T05:51:11.270Z,7.60
2018-11-03T05:53:39.418Z,6.67
2018-11-03T05:56:07.574Z,7.37
2018-11-03T05:58:35.732Z,7.80
2018-11-03T06:01:03.887Z,7.00
2018-11-03T06:03:32.036Z,7.47
2018-11-03T06:06:00.188Z,7.17
2018-11-03T06:08:28.360Z,7.70
2018-11-03T06:10:56.535Z,8.50
2018-11-03T06:13:24.683Z,7.50
2018-11-03T06:15:52.872Z,7.90
2018-11-03T06:18:21.021Z,8.13
2018-11-03T06:20:49.222Z,7.80
2018-11-03T06:23:17.440Z,7.80
2018-11-03T06:25:45.511Z,8.07
2018-11-03T06:28:13.781Z,8.43
2018-11-03T06:30:41.912Z,7.90
2018-11-03T06:33:10.056Z,8.90
2018-11-03T06:35:38.199Z,8.53
2018-11-03T06:38:06.375Z,7.33
2018-11-03T06:40:34.555Z,7.87
2018-11-03T06:43:02.752Z,8.77
2018-11-03T06:45:30.931Z,8.80
2018-11-03T06:47:59.383Z,7.87
2018-11-03T06:50:27.540Z,8.57
2018-11-03T06:52:55.687Z,8.50
2018-11-03T06:55:30.199Z,8.70
2018-11-03T06:57:58.343Z,8.97
2018-11-03T07:00:26.525Z,9.57
2018-11-03T07:02:54.642Z,9.67
2018-11-03T07:05:22.889Z,9.60
2018-11-03T07:07:51.115Z,9.43
2018-11-03T07:10:19.664Z,9.67
2018-11-03T07:12:47.897Z,10.20
2018-11-03T07:15:15.954Z,10.30
2018-11-03T07:17:44.154Z,8.83
2018-11-03T07:20:13.194Z,9.30
2018-11-03T07:22:41.437Z,10.40
2018-11-03T07:25:09.764Z,9.90
2018-11-03T07:27:37.911Z,9.63
2018-11-03T07:30:08.462Z,9.43
2018-11-03T07:32:36.605Z,10.70
2018-11-03T07:35:04.940Z,9.23
2018-11-03T07:37:33.142Z,9.40
2018-11-03T07:40:01.298Z,9.50
2018-11-03T07:42:29.590Z,9.87
2018-11-03T07:44:57.720Z,10.97
2018-11-03T07:47:25.868Z,10.57
2018-11-03T07:49:54.043Z,11.10
2018-11-03T07:52:22.298Z,12.37
2018-11-03T07:54:50.508Z,11.97
2018-11-03T07:57:18.632Z,11.20
2018-11-03T07:59:53.343Z,11.80
2018-11-03T08:02:21.506Z,11.53
2018-11-03T08:04:49.663Z,11.67
2018-11-03T08:07:17.850Z,12.50
2018-11-03T08:09:46.044Z,12.33
2018-11-03T08:12:14.212Z,13.00
2018-11-03T08:14:42.468Z,11.83
2018-11-03T08:17:10.826Z,12.73
2018-11-03T08:19:38.983Z,12.83
2018-11-03T08:22:07.143Z,14.67
2018-11-03T08:24:35.343Z,14.80
2018-11-03T08:27:03.540Z,14.40
2018-11-03T08:29:31.670Z,12.93
2018-11-03T08:32:00.067Z,13.50
2018-11-03T08:34:28.226Z,13.13
2018-11-03T08:36:56.387Z,12.23
2018-11-03T08:39:24.623Z,13.77
2018-11-03T08:41:52.715Z,13.20
2018-11-03T08:44:20.862Z,12.90
2018-11-03T08:46:49.083Z,15.13
2018-11-03T08:49:17.294Z,14.23
2018-11-03T08:51:45.542Z,14.77
2018-11-03T08:54:13.702Z,13.97
2018-11-03T08:56:41.871Z,14.83
2018-11-03T08:59:10.037Z,15.33
2018-11-03T09:01:38.318Z,13.97
2018-11-03T09:04:06.685Z,15.57
2018-11-03T09:06:34.883Z,13.63
2018-11-03T09:09:03.131Z,16.33
2018-11-03T09:11:31.307Z,14.70
2018-11-03T09:13:59.579Z,14.80
2018-11-03T09:16:27.768Z,13.70
2018-11-03T09:18:56.047Z,13.83
2018-11-03T09:21:24.263Z,14.13
2018-11-03T09:23:52.550Z,13.30
2018-11-03T09:26:21.464Z,15.07
2018-11-03T09:28:49.643Z,13.87
2018-11-03T09:31:17.910Z,14.93
2018-11-03T09:33:46.200Z,15.13
2018-11-03T09:36:14.390Z,14.27
2018-11-03T09:38:42.594Z,14.70
2018-11-03T09:41:10.763Z,16.17
2018-11-03T09:43:38.956Z,16.13
2018-11-03T09:46:07.323Z,15.37
2018-11-03T09:48:35.623Z,16.40
2018-11-03T09:51:03.908Z,15.80
2018-11-03T09:53:32.242Z,15.70
2018-11-03T09:56:00.629Z,15.23
2018-11-03T09:58:28.777Z,16.87
2018-11-03T10:00:56.947Z,15.67
2018-11-03T10:03:25.171Z,16.23
2018-11-03T10:05:53.392Z,16.17
2018-11-03T10:08:21.597Z,17.93
2018-11-03T10:10:49.771Z,16.47
2018-11-03T10:13:18.007Z,16.40
2018-11-03T10:15:46.299Z,16.83
2018-11-03T10:18:14.475Z,17.90
2018-11-03T10:20:42.692Z,17.80
2018-11-03T10:23:10.868Z,16.27
2018-11-03T10:25:39.100Z,16.60
2018-11-03T10:28:07.332Z,15.80
2018-11-03T10:30:35.555Z,15.63
2018-11-03T10:33:03.796Z,17.53
2018-11-03T10:35:31.945Z,18.60
2018-11-03T10:38:00.207Z,19.00
2018-11-03T10:40:28.548Z,16.97
2018-11-03T10:42:56.930Z,17.43
2018-11-03T10:45:25.307Z,18.83
2018-11-03T10:47:53.594Z,18.40
2018-11-03T10:50:21.787Z,18.30
2018-11-03T10:52:50.183Z,18.37
2018-11-03T10:55:19.360Z,16.77
2018-11-03T10:57:47.684Z,17.33
2018-11-03T11:00:22.627Z,18.90
2018-11-03T11:02:56.238Z,18.73
2018-11-03T11:05:29.707Z,16.63
2018-11-03T11:08:03.246Z,18.10
2018-11-03T11:10:36.810Z,18.43
2018-11-03T11:13:10.788Z,17.37
2018-11-03T11:15:39.058Z,14.27
2018-11-03T11:18:07.332Z,15.80
2018-11-03T11:20:35.549Z,15.60
2018-11-03T11:23:03.797Z,13.53
2018-11-03T11:25:32.213Z,13.67
2018-11-03T11:28:00.316Z,13.90
2018-11-03T11:30:33.999Z,13.43
2018-11-03T11:33:02.233Z,13.43
2018-11-03T11:35:30.461Z,12.93
2018-11-03T11:37:58.807Z,11.43
2018-11-03T11:40:27.013Z,12.23
2018-11-03T11:42:55.213Z,11.03
2018-11-03T11:45:23.494Z,12.37
2018-11-03T11:47:51.722Z,13.80
2018-11-03T11:50:20.374Z,12.17
2018-11-03T11:52:48.531Z,11.40
2018-11-03T11:55:16.821Z,11.27
2018-11-03T11:57:45.007Z,11.63
2018-11-03T12:00:13.214Z,10.87
2018-11-03T12:02:41.383Z,10.93
2018-11-03T12:05:09.579Z,11.47
2018-11-03T12:07:37.710Z,11.00
2018-11-03T12:10:06.068Z,9.50
2018-11-03T12:12:34.242Z,9.03
2018-11-03T12:15:02.431Z,8.23
2018-11-03T12:17:30.668Z,9.60
2018-11-03T12:19:58.830Z,10.93
2018-11-03T12:22:27.081Z,10.53
2018-11-03T12:24:55.272Z,11.30
2018-11-03T12:27:23.471Z,11.10
2018-11-03T12:29:51.624Z,10.20
2018-11-03T12:32:19.891Z,10.70
2018-11-03T12:34:48.153Z,8.60
2018-11-03T12:37:16.369Z,8.50
2018-11-03T12:39:44.580Z,7.80
2018-11-03T12:42:12.788Z,7.63
2018-11-03T12:44:41.055Z,7.40
2018-11-03T12:47:09.299Z,7.83
2018-11-03T12:49:37.476Z,9.20
2018-11-03T12:52:05.703Z,9.17
2018-11-03T12:54:34.122Z,8.23
2018-11-03T12:57:02.295Z,9.00
2018-11-03T12:59:30.492Z,8.77
2018-11-03T13:01:58.755Z,8.07
2018-11-03T13:04:26.948Z,6.63
2018-11-03T13:06:55.154Z,7.83
2018-11-03T13:09:23.312Z,7.30
2018-11-03T13:11:51.528Z,8.80
2018-11-03T13:14:19.687Z,8.53
2018-11-03T13:16:47.878Z,7.67
2018-11-03T13:19:16.036Z,7.93
2018-11-03T13:21:44.246Z,7.67
2018-11-03T13:24:12.807Z,6.80
2018-11-03T13:26:41.064Z,6.43
2018-11-03T13:29:09.530Z,5.37
2018-11-03T13:31:37.682Z,4.90
2018-11-03T13:34:06.318Z,4.83
2018-11-03T13:36:34.522Z,4.93
2018-11-03T13:39:02.797Z,3.97
2018-11-03T13:41:31.122Z,4.73
2018-11-03T13:43:59.274Z,3.17
2018-11-03T13:46:28.018Z,3.37
2018-11-03T13:48:56.232Z,3.37
2018-11-03T13:51:24.496Z,2.63
2018-11-03T13:53:52.755Z,2.60
2018-11-03T13:56:21.119Z,3.07
2018-11-03T13:58:49.490Z,3.20
2018-11-03T14:01:17.846Z,3.40
2018-11-03T14:03:46.069Z,2.80
2018-11-03T14:06:14.671Z,2.87
2018-11-03T14:08:43.046Z,3.17
2018-11-03T14:11:11.381Z,2.60
2018-11-03T14:13:39.555Z,2.50
2018-11-03T14:16:07.802Z,3.23
2018-11-03T14:18:36.251Z,3.03
2018-11-03T14:21:04.556Z,3.43
2018-11-03T14:23:33.040Z,4.70
2018-11-03T14:26:01.059Z,3.77
2018-11-03T14:28:29.435Z,3.60
2018-11-03T14:30:57.867Z,3.30
2018-11-03T14:33:26.276Z,2.63
2018-11-03T14:35:54.411Z,3.50
2018-11-03T14:38:22.680Z,3.63
2018-11-03T14:40:51.169Z,2.90
2018-11-03T14:43:19.654Z,3.67
2018-11-03T14:45:47.958Z,3.53
2018-11-03T14:48:16.370Z,3.83
2018-11-03T14:50:44.547Z,4.30
2018-11-03T14:53:12.772Z,4.87
2018-11-03T14:55:40.990Z,4.80
2018-11-03T14:58:09.186Z,4.50
2018-11-03T15:00:37.890Z,4.00
2018-11-03T15:03:06.694Z,4.57
2018-11-03T15:05:34.866Z,5.07
2018-11-03T15:08:03.235Z,3.93
2018-11-03T15:10:31.525Z,3.73
2018-11-03T15:12:59.678Z,3.30
2018-11-03T15:15:27.907Z,3.10
2018-11-03T15:17:56.075Z,2.77
2018-11-03T15:20:24.282Z,3.03
2018-11-03T15:22:52.473Z,2.90
2018-11-03T15:25:20.662Z,3.37
2018-11-03T15:27:48.867Z,3.07
2018-11-03T15:30:17.053Z,3.00
2018-11-03T15:32:45.322Z,2.97
2018-11-03T15:35:14.007Z,3.07
2018-11-03T15:37:42.308Z,3.43
2018-11-03T15:40:12.706Z,2.83
2018-11-03T15:42:41.043Z,2.80
2018-11-03T15:45:12.076Z,3.00
2018-11-03T15:47:40.404Z,2.67
2018-11-03T15:50:08.543Z,3.07
2018-11-03T15:52:36.686Z,3.20
2018-11-03T15:55:05.691Z,3.17
2018-11-03T15:57:34.032Z,3.30
2018-11-03T16:00:03.088Z,3.87
2018-11-03T16:02:31.766Z,4.03
2018-11-03T16:05:00.574Z,4.00
2018-11-03T16:07:30.287Z,4.13
2018-11-03T16:09:58.595Z,3.93
2018-11-03T16:12:26.824Z,3.83
2018-11-03T16:14:55.023Z,4.03
2018-11-03T16:17:23.269Z,4.03
2018-11-03T16:19:51.655Z,4.80
2018-11-03T16:22:20.022Z,4.23
2018-11-03T16:24:48.413Z,4.13
2018-11-03T16:27:16.734Z,4.53
2018-11-03T16:29:45.056Z,4.87
2018-11-03T16:32:13.486Z,4.83
2018-11-03T16:34:41.506Z,4.57
2018-11-03T16:37:09.708Z,5.07
2018-11-03T16:39:37.926Z,4.20
2018-11-03T16:42:06.383Z,4.60
2018-11-03T16:44:34.582Z,4.57
2018-11-03T16:47:02.739Z,4.70
2018-11-03T16:49:31.050Z,4.90
2018-11-03T16:51:59.246Z,4.60
2018-11-03T16:54:28.566Z,5.93
2018-11-03T16:56:56.714Z,5.27
2018-11-03T16:59:24.855Z,5.50
2018-11-03T17:01:53.290Z,6.30
2018-11-03T17:04:21.439Z,8.23
2018-11-03T17:06:49.682Z,7.87
2018-11-03T17:09:17.778Z,5.53
2018-11-03T17:11:45.951Z,5.30
2018-11-03T17:14:14.108Z,5.73
2018-11-03T17:16:42.299Z,5.50
2018-11-03T17:19:10.466Z,4.63
2018-11-03T17:21:39.108Z,5.33
2018-11-03T17:24:07.269Z,5.70
2018-11-03T17:26:35.428Z,5.13
2018-11-03T17:29:03.602Z,5.67
2018-11-03T17:31:31.790Z,5.40
2018-11-03T17:33:59.946Z,6.23
2018-11-03T17:36:28.298Z,6.00
2018-11-03T17:38:56.416Z,5.87
2018-11-03T17:41:24.680Z,6.20
2018-11-03T17:43:52.970Z,5.87
2018-11-03T17:46:21.132Z,5.87
2018-11-03T17:48:49.303Z,6.77
2018-11-03T17:51:17.459Z,6.77
2018-11-03T17:53:45.710Z,8.10
2018-11-03T17:56:13.842Z,6.87
2018-11-03T17:58:42.004Z,6.43
2018-11-03T18:01:10.280Z,7.03
2018-11-03T18:03:38.309Z,6.90
2018-11-03T18:06:06.696Z,6.60
2018-11-03T18:08:34.839Z,6.20
2018-11-03T18:11:02.980Z,6.23
2018-11-03T18:13:31.114Z,6.70
2018-11-03T18:15:59.270Z,6.67
2018-11-03T18:18:27.418Z,6.90
2018-11-03T18:20:55.563Z,6.27
2018-11-03T18:23:23.732Z,7.27
2018-11-03T18:25:51.887Z,7.73
2018-11-03T18:28:20.043Z,12.40
2018-11-03T18:30:48.294Z,12.20
2018-11-03T18:33:16.446Z,9.53
2018-11-03T18:35:44.487Z,7.93
2018-11-03T18:38:12.659Z,7.37
2018-11-03T18:40:40.820Z,7.87
2018-11-03T18:43:09.044Z,8.00
2018-11-03T18:45:37.174Z,9.03
2018-11-03T18:48:05.534Z,7.43
2018-11-03T18:50:33.683Z,6.67
2018-11-03T18:53:01.840Z,6.60
2018-11-03T18:55:29.990Z,8.37
2018-11-03T18:57:58.191Z,6.73
2018-11-03T19:00:26.329Z,6.90
2018-11-03T19:02:54.515Z,7.07
2018-11-03T19:05:22.660Z,7.03
2018-11-03T19:07:50.798Z,7.00
2018-11-03T19:10:18.970Z,6.53
2018-11-03T19:12:47.249Z,6.73
2018-11-03T19:15:15.623Z,7.07
2018-11-03T19:17:43.788Z,6.57
2018-11-03T19:20:14.449Z,6.67
2018-11-03T19:22:42.771Z,6.37
2018-11-03T19:25:12.075Z,5.80
2018-11-03T19:27:40.783Z,6.43
2018-11-03T19:30:10.714Z,6.60
2018-11-03T19:32:39.966Z,6.50
2018-11-03T19:35:08.473Z,6.07
2018-11-03T19:37:36.685Z,6.63
2018-11-03T19:40:05.517Z,6.20
2018-11-03T19:42:33.658Z,6.43
2018-11-03T19:45:01.845Z,6.47
2018-11-03T19:47:30.000Z,6.70
2018-11-03T19:49:58.151Z,6.10
2018-11-03T19:52:26.292Z,6.43
2018-11-03T19:54:54.455Z,6.53
2018-11-03T19:57:22.608Z,6.10
2018-11-03T19:59:50.788Z,6.90
2018-11-03T20:02:19.122Z,5.77
2018-11-03T20:04:47.224Z,6.03
2018-11-03T20:07:15.444Z,6.57
2018-11-03T20:09:43.568Z,5.90
2018-11-03T20:12:11.718Z,5.87
2018-11-03T20:14:39.879Z,6.80
2018-11-03T20:17:08.087Z,6.10
2018-11-03T20:19:36.259Z,6.60
2018-11-03T20:22:05.580Z,6.40
2018-11-03T20:24:33.897Z,6.80
2018-11-03T20:27:02.136Z,6.67
2018-11-03T20:29:30.283Z,6.47
2018-11-03T20:31:58.484Z,6.20
2018-11-03T20:34:26.620Z,5.77
2018-11-03T20:36:54.794Z,6.17
2018-11-03T20:39:22.951Z,5.63
2018-11-03T20:41:51.089Z,7.50
2018-11-03T20:44:19.276Z,7.20
2018-11-03T20:46:47.438Z,7.10
2018-11-03T20:49:15.603Z,7.70
2018-11-03T20:51:43.747Z,7.07
2018-11-03T20:54:11.978Z,6.17
2018-11-03T20:56:40.178Z,7.77
2018-11-03T20:59:08.670Z,7.07
2018-11-03T21:01:36.824Z,7.33
2018-11-03T21:04:05.329Z,7.03
2018-11-03T21:06:33.478Z,8.33
2018-11-03T21:09:01.655Z,7.00
2018-11-03T21:11:29.804Z,7.00
2018-11-03T21:13:57.971Z,7.00
2018-11-03T21:16:26.145Z,7.83
2018-11-03T21:18:54.372Z,6.87
2018-11-03T21:21:22.532Z,6.87
2018-11-03T21:23:50.848Z,6.80
2018-11-03T21:26:18.906Z,7.33
2018-11-03T21:28:47.951Z,7.80
2018-11-03T21:31:16.121Z,7.23
2018-11-03T21:33:44.283Z,7.30
2018-11-03T21:36:12.457Z,7.73
2018-11-03T21:38:40.624Z,8.33
2018-11-03T21:41:08.779Z,11.37
2018-11-03T21:43:36.915Z,9.57
2018-11-03T21:46:06.391Z,8.93
2018-11-03T21:48:34.499Z,7.97
2018-11-03T21:51:02.669Z,6.40
2018-11-03T21:53:30.981Z,7.10
2018-11-03T21:55:59.235Z,7.33
2018-11-03T21:58:27.252Z,7.43
2018-11-03T22:00:55.423Z,8.80
2018-11-03T22:03:23.574Z,8.57
2018-11-03T22:05:51.792Z,8.13
2018-11-03T22:08:19.975Z,9.43
2018-11-03T22:10:48.138Z,9.53
2018-11-03T22:13:16.291Z,9.13
2018-11-03T22:15:44.454Z,9.03
2018-11-03T22:18:12.595Z,9.53
2018-11-03T22:20:40.754Z,10.27
2018-11-03T22:23:09.047Z,9.53
2018-11-03T22:25:37.235Z,9.53
2018-11-03T22:28:05.717Z,10.83
2018-11-03T22:30:33.707Z,23.20
2018-11-03T22:33:01.883Z,14.23
2018-11-03T22:35:30.032Z,9.20
2018-11-03T22:37:58.190Z,9.10
2018-11-03T22:40:26.342Z,9.03
2018-11-03T22:42:54.547Z,8.90
2018-11-03T22:45:22.780Z,9.17
2018-11-03T22:47:50.971Z,8.03
2018-11-03T22:50:19.127Z,8.07
2018-11-03T22:52:47.259Z,8.60
2018-11-03T22:55:15.419Z,8.97
2018-11-03T22:57:43.578Z,8.97
2018-11-03T23:00:13.107Z,8.50
2018-11-03T23:02:41.691Z,9.07
2018-11-03T23:05:10.787Z,8.63
2018-11-03T23:07:39.211Z,8.93
2018-11-03T23:10:07.645Z,8.87
2018-11-03T23:12:35.894Z,8.70
2018-11-03T23:15:04.014Z,8.57
2018-11-03T23:17:32.159Z,9.27
2018-11-03T23:20:00.300Z,8.90
2018-11-03T23:22:28.440Z,9.77
2018-11-03T23:24:56.594Z,10.13
2018-11-03T23:27:24.763Z,8.73
2018-11-03T23:29:53.147Z,8.07
2018-11-03T23:32:21.074Z,9.77
2018-11-03T23:34:49.206Z,10.80
2018-11-03T23:37:17.371Z,11.83
2018-11-03T23:39:45.566Z,10.13
2018-11-03T23:42:13.723Z,12.57
2018-11-03T23:44:41.867Z,12.77
2018-11-03T23:47:10.156Z,10.23
2018-11-03T23:49:38.334Z,9.87
2018-11-03T23:52:06.474Z,9.27
2018-11-03T23:54:34.610Z,8.67
2018-11-03T23:57:02.774Z,9.00
2018-11-03T23:59:31.044Z,8.33
